sensor_id;sensor_type;location;lat;lon;timestamp;P1;durP1;ratioP1;P2;durP2;ratioP2
21675;SDS011;10999;51.332;9.458;2024-03-07T00:00:09;16.13;;;6.90;;
21675;SDS011;10999;51.332;9.458;2024-03-07T00:02:45;12.73;;;5.60;;
21675;SDS011;10999;51.332;9.458;2024-03-07T00:05:17;13.23;;;6.55;;
21675;SDS011;10999;51.332;9.458;2024-03-07T00:07:45;14.25;;;7.13;;
21675;SDS011;10999;51.332;9.458;2024-03-07T00:10:13;15.75;;;5.97;;
21675;SDS011;10999;51.332;9.458;2024-03-07T00:12:41;16.33;;;6.38;;
21675;SDS011;10999;51.332;9.458;2024-03-07T00:15:09;18.88;;;7.53;;
21675;SDS011;10999;51.332;9.458;2024-03-07T00:17:37;17.42;;;6.93;;
21675;SDS011;10999;51.332;9.458;2024-03-07T00:20:05;16.25;;;7.10;;
21675;SDS011;10999;51.332;9.458;2024-03-07T00:22:35;13.13;;;5.50;;
21675;SDS011;10999;51.332;9.458;2024-03-07T00:25:03;17.15;;;6.95;;
21675;SDS011;10999;51.332;9.458;2024-03-07T00:27:31;18.52;;;7.15;;
21675;SDS011;10999;51.332;9.458;2024-03-07T00:29:59;16.23;;;6.25;;
21675;SDS011;10999;51.332;9.458;2024-03-07T00:32:25;14.73;;;6.25;;
21675;SDS011;10999;51.332;9.458;2024-03-07T00:34:56;16.80;;;6.25;;
21675;SDS011;10999;51.332;9.458;2024-03-07T00:37:23;13.68;;;5.65;;
21675;SDS011;10999;51.332;9.458;2024-03-07T00:39:52;15.68;;;6.28;;
21675;SDS011;10999;51.332;9.458;2024-03-07T00:42:20;12.32;;;5.72;;
21675;SDS011;10999;51.332;9.458;2024-03-07T00:44:56;16.80;;;6.13;;
21675;SDS011;10999;51.332;9.458;2024-03-07T00:47:22;14.50;;;5.20;;
21675;SDS011;10999;51.332;9.458;2024-03-07T00:49:49;11.70;;;5.80;;
21675;SDS011;10999;51.332;9.458;2024-03-07T00:52:16;13.38;;;5.55;;
21675;SDS011;10999;51.332;9.458;2024-03-07T00:54:42;14.95;;;6.40;;
21675;SDS011;10999;51.332;9.458;2024-03-07T00:57:09;15.40;;;5.47;;
21675;SDS011;10999;51.332;9.458;2024-03-07T00:59:36;16.50;;;6.22;;
21675;SDS011;10999;51.332;9.458;2024-03-07T01:02:03;12.82;;;5.25;;
21675;SDS011;10999;51.332;9.458;2024-03-07T01:04:31;13.15;;;6.05;;
21675;SDS011;10999;51.332;9.458;2024-03-07T01:06:59;14.82;;;5.50;;
21675;SDS011;10999;51.332;9.458;2024-03-07T01:09:27;17.90;;;5.90;;
21675;SDS011;10999;51.332;9.458;2024-03-07T01:11:54;13.88;;;5.75;;
21675;SDS011;10999;51.332;9.458;2024-03-07T01:14:21;15.13;;;5.75;;
21675;SDS011;10999;51.332;9.458;2024-03-07T01:16:48;14.40;;;5.22;;
21675;SDS011;10999;51.332;9.458;2024-03-07T01:19:15;14.88;;;6.18;;
21675;SDS011;10999;51.332;9.458;2024-03-07T01:21:42;12.50;;;5.63;;
21675;SDS011;10999;51.332;9.458;2024-03-07T01:24:09;13.88;;;6.13;;
21675;SDS011;10999;51.332;9.458;2024-03-07T01:26:35;11.43;;;5.35;;
21675;SDS011;10999;51.332;9.458;2024-03-07T01:29:02;14.45;;;4.80;;
21675;SDS011;10999;51.332;9.458;2024-03-07T01:31:30;13.88;;;5.53;;
21675;SDS011;10999;51.332;9.458;2024-03-07T01:33:57;17.00;;;6.35;;
21675;SDS011;10999;51.332;9.458;2024-03-07T01:36:24;13.30;;;6.13;;
21675;SDS011;10999;51.332;9.458;2024-03-07T01:38:50;13.75;;;4.93;;
21675;SDS011;10999;51.332;9.458;2024-03-07T01:41:18;12.23;;;4.95;;
21675;SDS011;10999;51.332;9.458;2024-03-07T01:43:45;13.77;;;5.63;;
21675;SDS011;10999;51.332;9.458;2024-03-07T01:46:12;15.27;;;5.43;;
21675;SDS011;10999;51.332;9.458;2024-03-07T01:48:40;16.27;;;5.88;;
21675;SDS011;10999;51.332;9.458;2024-03-07T01:51:07;12.05;;;4.80;;
21675;SDS011;10999;51.332;9.458;2024-03-07T01:53:35;15.15;;;6.25;;
21675;SDS011;10999;51.332;9.458;2024-03-07T01:56:02;15.68;;;5.25;;
21675;SDS011;10999;51.332;9.458;2024-03-07T01:58:30;14.13;;;5.93;;
21675;SDS011;10999;51.332;9.458;2024-03-07T02:00:58;13.48;;;5.53;;
21675;SDS011;10999;51.332;9.458;2024-03-07T02:03:26;12.38;;;5.32;;
21675;SDS011;10999;51.332;9.458;2024-03-07T02:05:53;16.65;;;5.78;;
21675;SDS011;10999;51.332;9.458;2024-03-07T02:08:21;15.13;;;6.00;;
21675;SDS011;10999;51.332;9.458;2024-03-07T02:10:48;12.63;;;5.20;;
21675;SDS011;10999;51.332;9.458;2024-03-07T02:13:15;11.27;;;5.13;;
21675;SDS011;10999;51.332;9.458;2024-03-07T02:15:42;14.00;;;6.30;;
21675;SDS011;10999;51.332;9.458;2024-03-07T02:18:09;14.35;;;5.65;;
21675;SDS011;10999;51.332;9.458;2024-03-07T02:20:37;16.02;;;6.05;;
21675;SDS011;10999;51.332;9.458;2024-03-07T02:23:04;13.52;;;5.07;;
21675;SDS011;10999;51.332;9.458;2024-03-07T02:25:31;15.07;;;5.20;;
21675;SDS011;10999;51.332;9.458;2024-03-07T02:27:58;14.38;;;5.78;;
21675;SDS011;10999;51.332;9.458;2024-03-07T02:30:25;10.90;;;4.90;;
21675;SDS011;10999;51.332;9.458;2024-03-07T02:32:52;14.40;;;5.80;;
21675;SDS011;10999;51.332;9.458;2024-03-07T02:35:22;11.77;;;4.72;;
21675;SDS011;10999;51.332;9.458;2024-03-07T02:37:50;14.95;;;5.80;;
21675;SDS011;10999;51.332;9.458;2024-03-07T02:40:17;16.90;;;5.50;;
21675;SDS011;10999;51.332;9.458;2024-03-07T02:42:43;15.63;;;6.00;;
21675;SDS011;10999;51.332;9.458;2024-03-07T02:45:10;16.88;;;5.07;;
21675;SDS011;10999;51.332;9.458;2024-03-07T02:47:40;13.18;;;5.03;;
21675;SDS011;10999;51.332;9.458;2024-03-07T02:50:08;15.00;;;5.65;;
21675;SDS011;10999;51.332;9.458;2024-03-07T02:52:36;16.63;;;5.85;;
21675;SDS011;10999;51.332;9.458;2024-03-07T02:55:03;15.77;;;5.85;;
21675;SDS011;10999;51.332;9.458;2024-03-07T02:57:31;13.18;;;5.28;;
21675;SDS011;10999;51.332;9.458;2024-03-07T02:59:58;14.85;;;5.50;;
21675;SDS011;10999;51.332;9.458;2024-03-07T03:02:25;16.80;;;5.80;;
21675;SDS011;10999;51.332;9.458;2024-03-07T03:04:52;20.48;;;6.47;;
21675;SDS011;10999;51.332;9.458;2024-03-07T03:07:20;12.00;;;4.78;;
21675;SDS011;10999;51.332;9.458;2024-03-07T03:09:47;13.10;;;5.47;;
21675;SDS011;10999;51.332;9.458;2024-03-07T03:12:15;14.40;;;5.75;;
21675;SDS011;10999;51.332;9.458;2024-03-07T03:14:42;13.88;;;5.63;;
21675;SDS011;10999;51.332;9.458;2024-03-07T03:17:09;17.95;;;6.47;;
21675;SDS011;10999;51.332;9.458;2024-03-07T03:19:37;17.60;;;5.68;;
21675;SDS011;10999;51.332;9.458;2024-03-07T03:22:04;14.85;;;5.97;;
21675;SDS011;10999;51.332;9.458;2024-03-07T03:24:31;15.68;;;6.03;;
21675;SDS011;10999;51.332;9.458;2024-03-07T03:26:58;15.10;;;6.50;;
21675;SDS011;10999;51.332;9.458;2024-03-07T03:29:24;18.10;;;7.28;;
21675;SDS011;10999;51.332;9.458;2024-03-07T03:31:55;16.50;;;6.50;;
21675;SDS011;10999;51.332;9.458;2024-03-07T03:34:22;16.75;;;6.78;;
21675;SDS011;10999;51.332;9.458;2024-03-07T03:36:49;16.30;;;6.40;;
21675;SDS011;10999;51.332;9.458;2024-03-07T03:39:16;18.17;;;7.07;;
21675;SDS011;10999;51.332;9.458;2024-03-07T03:41:42;16.05;;;6.30;;
21675;SDS011;10999;51.332;9.458;2024-03-07T03:44:09;14.90;;;5.53;;
21675;SDS011;10999;51.332;9.458;2024-03-07T03:46:37;13.05;;;5.18;;
21675;SDS011;10999;51.332;9.458;2024-03-07T03:49:04;17.88;;;7.32;;
21675;SDS011;10999;51.332;9.458;2024-03-07T03:51:32;17.95;;;7.72;;
21675;SDS011;10999;51.332;9.458;2024-03-07T03:53:59;16.13;;;6.97;;
21675;SDS011;10999;51.332;9.458;2024-03-07T03:56:26;14.88;;;6.53;;
21675;SDS011;10999;51.332;9.458;2024-03-07T03:58:53;16.80;;;5.68;;
21675;SDS011;10999;51.332;9.458;2024-03-07T04:01:19;14.60;;;6.47;;
21675;SDS011;10999;51.332;9.458;2024-03-07T04:03:46;16.48;;;6.05;;
21675;SDS011;10999;51.332;9.458;2024-03-07T04:06:13;14.60;;;6.05;;
21675;SDS011;10999;51.332;9.458;2024-03-07T04:08:40;14.98;;;6.70;;
21675;SDS011;10999;51.332;9.458;2024-03-07T04:11:07;14.77;;;6.30;;
21675;SDS011;10999;51.332;9.458;2024-03-07T04:13:36;17.13;;;5.93;;
21675;SDS011;10999;51.332;9.458;2024-03-07T04:16:04;16.27;;;5.72;;
21675;SDS011;10999;51.332;9.458;2024-03-07T04:18:31;14.93;;;5.90;;
21675;SDS011;10999;51.332;9.458;2024-03-07T04:20:58;16.40;;;7.03;;
21675;SDS011;10999;51.332;9.458;2024-03-07T04:23:26;19.65;;;7.13;;
21675;SDS011;10999;51.332;9.458;2024-03-07T04:25:54;14.05;;;6.30;;
21675;SDS011;10999;51.332;9.458;2024-03-07T04:28:22;15.15;;;6.10;;
21675;SDS011;10999;51.332;9.458;2024-03-07T04:30:49;19.10;;;6.03;;
21675;SDS011;10999;51.332;9.458;2024-03-07T04:33:16;16.73;;;6.03;;
21675;SDS011;10999;51.332;9.458;2024-03-07T04:35:43;15.25;;;7.32;;
21675;SDS011;10999;51.332;9.458;2024-03-07T04:38:09;15.23;;;6.57;;
21675;SDS011;10999;51.332;9.458;2024-03-07T04:40:41;14.60;;;5.85;;
21675;SDS011;10999;51.332;9.458;2024-03-07T04:43:09;15.27;;;5.95;;
21675;SDS011;10999;51.332;9.458;2024-03-07T04:45:36;17.65;;;6.95;;
21675;SDS011;10999;51.332;9.458;2024-03-07T04:48:03;17.77;;;6.13;;
21675;SDS011;10999;51.332;9.458;2024-03-07T04:50:31;16.98;;;7.28;;
21675;SDS011;10999;51.332;9.458;2024-03-07T04:52:58;18.33;;;6.45;;
21675;SDS011;10999;51.332;9.458;2024-03-07T04:55:25;17.15;;;6.78;;
21675;SDS011;10999;51.332;9.458;2024-03-07T04:57:52;14.98;;;6.72;;
21675;SDS011;10999;51.332;9.458;2024-03-07T05:00:18;18.45;;;7.20;;
21675;SDS011;10999;51.332;9.458;2024-03-07T05:02:47;14.48;;;6.30;;
21675;SDS011;10999;51.332;9.458;2024-03-07T05:05:16;15.27;;;6.70;;
21675;SDS011;10999;51.332;9.458;2024-03-07T05:07:49;13.70;;;5.72;;
21675;SDS011;10999;51.332;9.458;2024-03-07T05:10:18;17.52;;;5.78;;
21675;SDS011;10999;51.332;9.458;2024-03-07T05:12:45;17.48;;;6.93;;
21675;SDS011;10999;51.332;9.458;2024-03-07T05:15:12;14.73;;;7.03;;
21675;SDS011;10999;51.332;9.458;2024-03-07T05:17:39;18.90;;;7.60;;
21675;SDS011;10999;51.332;9.458;2024-03-07T05:20:09;16.05;;;6.43;;
21675;SDS011;10999;51.332;9.458;2024-03-07T05:22:39;14.82;;;6.80;;
21675;SDS011;10999;51.332;9.458;2024-03-07T05:25:10;18.75;;;7.15;;
21675;SDS011;10999;51.332;9.458;2024-03-07T05:27:37;16.48;;;6.68;;
21675;SDS011;10999;51.332;9.458;2024-03-07T05:30:04;18.67;;;6.78;;
21675;SDS011;10999;51.332;9.458;2024-03-07T05:32:36;17.65;;;7.65;;
21675;SDS011;10999;51.332;9.458;2024-03-07T05:35:03;17.90;;;6.43;;
21675;SDS011;10999;51.332;9.458;2024-03-07T05:37:30;16.98;;;6.30;;
21675;SDS011;10999;51.332;9.458;2024-03-07T05:39:58;20.05;;;7.43;;
21675;SDS011;10999;51.332;9.458;2024-03-07T05:42:25;19.00;;;7.65;;
21675;SDS011;10999;51.332;9.458;2024-03-07T05:44:52;16.83;;;7.18;;
21675;SDS011;10999;51.332;9.458;2024-03-07T05:47:20;20.23;;;7.95;;
21675;SDS011;10999;51.332;9.458;2024-03-07T05:49:48;16.50;;;6.38;;
21675;SDS011;10999;51.332;9.458;2024-03-07T05:52:15;17.90;;;7.38;;
21675;SDS011;10999;51.332;9.458;2024-03-07T05:54:42;17.98;;;6.80;;
21675;SDS011;10999;51.332;9.458;2024-03-07T05:57:10;15.48;;;6.53;;
21675;SDS011;10999;51.332;9.458;2024-03-07T05:59:38;16.98;;;6.45;;
21675;SDS011;10999;51.332;9.458;2024-03-07T06:02:05;16.52;;;6.53;;
21675;SDS011;10999;51.332;9.458;2024-03-07T06:04:32;20.80;;;6.60;;
21675;SDS011;10999;51.332;9.458;2024-03-07T06:07:01;22.67;;;7.68;;
21675;SDS011;10999;51.332;9.458;2024-03-07T06:09:27;15.68;;;7.35;;
21675;SDS011;10999;51.332;9.458;2024-03-07T06:11:54;18.13;;;6.30;;
21675;SDS011;10999;51.332;9.458;2024-03-07T06:14:21;14.40;;;6.15;;
21675;SDS011;10999;51.332;9.458;2024-03-07T06:16:50;17.67;;;6.72;;
21675;SDS011;10999;51.332;9.458;2024-03-07T06:19:19;15.20;;;5.90;;
21675;SDS011;10999;51.332;9.458;2024-03-07T06:21:45;16.42;;;7.60;;
21675;SDS011;10999;51.332;9.458;2024-03-07T06:24:12;17.33;;;7.00;;
21675;SDS011;10999;51.332;9.458;2024-03-07T06:26:41;17.95;;;7.35;;
21675;SDS011;10999;51.332;9.458;2024-03-07T06:29:13;16.15;;;6.53;;
21675;SDS011;10999;51.332;9.458;2024-03-07T06:31:42;17.73;;;7.30;;
21675;SDS011;10999;51.332;9.458;2024-03-07T06:34:09;20.67;;;7.60;;
21675;SDS011;10999;51.332;9.458;2024-03-07T06:36:36;18.30;;;7.32;;
21675;SDS011;10999;51.332;9.458;2024-03-07T06:39:04;19.40;;;6.65;;
21675;SDS011;10999;51.332;9.458;2024-03-07T06:41:33;21.92;;;7.38;;
21675;SDS011;10999;51.332;9.458;2024-03-07T06:44:01;16.75;;;6.85;;
21675;SDS011;10999;51.332;9.458;2024-03-07T06:46:28;21.30;;;7.38;;
21675;SDS011;10999;51.332;9.458;2024-03-07T06:48:55;17.70;;;7.63;;
21675;SDS011;10999;51.332;9.458;2024-03-07T06:51:22;18.85;;;7.25;;
21675;SDS011;10999;51.332;9.458;2024-03-07T06:53:51;15.90;;;7.05;;
21675;SDS011;10999;51.332;9.458;2024-03-07T06:56:18;19.27;;;7.03;;
21675;SDS011;10999;51.332;9.458;2024-03-07T06:58:45;17.75;;;7.20;;
21675;SDS011;10999;51.332;9.458;2024-03-07T07:01:13;19.15;;;7.78;;
21675;SDS011;10999;51.332;9.458;2024-03-07T07:03:42;18.35;;;7.28;;
21675;SDS011;10999;51.332;9.458;2024-03-07T07:06:10;19.30;;;7.07;;
21675;SDS011;10999;51.332;9.458;2024-03-07T07:08:37;19.35;;;8.30;;
21675;SDS011;10999;51.332;9.458;2024-03-07T07:11:04;15.20;;;6.53;;
21675;SDS011;10999;51.332;9.458;2024-03-07T07:13:31;18.42;;;7.22;;
21675;SDS011;10999;51.332;9.458;2024-03-07T07:15:58;16.58;;;8.00;;
21675;SDS011;10999;51.332;9.458;2024-03-07T07:18:25;20.80;;;8.35;;
21675;SDS011;10999;51.332;9.458;2024-03-07T07:20:52;22.92;;;7.50;;
21675;SDS011;10999;51.332;9.458;2024-03-07T07:23:19;19.05;;;7.82;;
21675;SDS011;10999;51.332;9.458;2024-03-07T07:25:46;20.88;;;7.90;;
21675;SDS011;10999;51.332;9.458;2024-03-07T07:28:13;17.83;;;7.45;;
21675;SDS011;10999;51.332;9.458;2024-03-07T07:30:42;22.23;;;8.77;;
21675;SDS011;10999;51.332;9.458;2024-03-07T07:33:11;18.55;;;8.05;;
21675;SDS011;10999;51.332;9.458;2024-03-07T07:35:40;22.08;;;7.53;;
21675;SDS011;10999;51.332;9.458;2024-03-07T07:38:07;22.05;;;8.57;;
21675;SDS011;10999;51.332;9.458;2024-03-07T07:40:37;18.50;;;7.63;;
21675;SDS011;10999;51.332;9.458;2024-03-07T07:43:05;19.98;;;7.72;;
21675;SDS011;10999;51.332;9.458;2024-03-07T07:45:32;19.65;;;8.30;;
21675;SDS011;10999;51.332;9.458;2024-03-07T07:48:02;18.48;;;8.32;;
21675;SDS011;10999;51.332;9.458;2024-03-07T07:50:29;19.42;;;7.68;;
21675;SDS011;10999;51.332;9.458;2024-03-07T07:52:57;18.20;;;6.97;;
21675;SDS011;10999;51.332;9.458;2024-03-07T07:55:25;20.95;;;8.27;;
21675;SDS011;10999;51.332;9.458;2024-03-07T07:57:54;20.40;;;8.75;;
21675;SDS011;10999;51.332;9.458;2024-03-07T08:00:23;19.42;;;8.07;;
21675;SDS011;10999;51.332;9.458;2024-03-07T08:02:52;18.50;;;7.70;;
21675;SDS011;10999;51.332;9.458;2024-03-07T08:05:25;20.30;;;7.47;;
21675;SDS011;10999;51.332;9.458;2024-03-07T08:07:54;21.55;;;8.13;;
21675;SDS011;10999;51.332;9.458;2024-03-07T08:10:26;19.08;;;8.43;;
21675;SDS011;10999;51.332;9.458;2024-03-07T08:12:57;20.98;;;7.85;;
21675;SDS011;10999;51.332;9.458;2024-03-07T08:15:25;22.52;;;9.13;;
21675;SDS011;10999;51.332;9.458;2024-03-07T08:17:54;19.60;;;8.68;;
21675;SDS011;10999;51.332;9.458;2024-03-07T08:20:22;22.05;;;8.55;;
21675;SDS011;10999;51.332;9.458;2024-03-07T08:22:55;21.20;;;8.52;;
21675;SDS011;10999;51.332;9.458;2024-03-07T08:25:24;17.50;;;7.00;;
21675;SDS011;10999;51.332;9.458;2024-03-07T08:27:56;20.70;;;8.38;;
21675;SDS011;10999;51.332;9.458;2024-03-07T08:30:24;18.58;;;7.85;;
21675;SDS011;10999;51.332;9.458;2024-03-07T08:32:53;20.35;;;8.55;;
21675;SDS011;10999;51.332;9.458;2024-03-07T08:35:21;25.85;;;10.10;;
21675;SDS011;10999;51.332;9.458;2024-03-07T08:37:53;22.75;;;8.32;;
21675;SDS011;10999;51.332;9.458;2024-03-07T08:40:22;19.63;;;8.52;;
21675;SDS011;10999;51.332;9.458;2024-03-07T08:42:54;22.88;;;8.80;;
21675;SDS011;10999;51.332;9.458;2024-03-07T08:45:22;22.42;;;8.60;;
21675;SDS011;10999;51.332;9.458;2024-03-07T08:47:49;19.33;;;7.82;;
21675;SDS011;10999;51.332;9.458;2024-03-07T08:50:17;19.05;;;8.27;;
21675;SDS011;10999;51.332;9.458;2024-03-07T08:52:45;21.92;;;8.63;;
21675;SDS011;10999;51.332;9.458;2024-03-07T08:55:20;22.95;;;8.65;;
21675;SDS011;10999;51.332;9.458;2024-03-07T08:57:49;17.85;;;8.48;;
21675;SDS011;10999;51.332;9.458;2024-03-07T09:00:16;21.48;;;9.15;;
21675;SDS011;10999;51.332;9.458;2024-03-07T09:05:29;22.55;;;8.13;;
21675;SDS011;10999;51.332;9.458;2024-03-07T09:08:00;20.33;;;7.97;;
21675;SDS011;10999;51.332;9.458;2024-03-07T09:10:27;19.52;;;8.40;;
21675;SDS011;10999;51.332;9.458;2024-03-07T09:12:57;20.23;;;8.00;;
21675;SDS011;10999;51.332;9.458;2024-03-07T09:15:25;20.52;;;8.23;;
21675;SDS011;10999;51.332;9.458;2024-03-07T09:17:51;19.58;;;9.57;;
21675;SDS011;10999;51.332;9.458;2024-03-07T09:20:20;21.75;;;8.75;;
21675;SDS011;10999;51.332;9.458;2024-03-07T09:22:47;21.38;;;9.15;;
21675;SDS011;10999;51.332;9.458;2024-03-07T09:25:17;18.90;;;7.35;;
21675;SDS011;10999;51.332;9.458;2024-03-07T09:27:47;23.13;;;9.20;;
21675;SDS011;10999;51.332;9.458;2024-03-07T09:30:13;21.50;;;8.38;;
21675;SDS011;10999;51.332;9.458;2024-03-07T09:32:43;21.75;;;8.77;;
21675;SDS011;10999;51.332;9.458;2024-03-07T09:35:10;21.23;;;8.55;;
21675;SDS011;10999;51.332;9.458;2024-03-07T09:37:41;19.77;;;8.70;;
21675;SDS011;10999;51.332;9.458;2024-03-07T09:40:10;24.90;;;8.80;;
21675;SDS011;10999;51.332;9.458;2024-03-07T09:42:42;20.67;;;8.48;;
21675;SDS011;10999;51.332;9.458;2024-03-07T09:47:46;19.50;;;6.70;;
21675;SDS011;10999;51.332;9.458;2024-03-07T09:50:15;21.23;;;7.68;;
21675;SDS011;10999;51.332;9.458;2024-03-07T09:52:45;23.20;;;8.40;;
21675;SDS011;10999;51.332;9.458;2024-03-07T09:55:16;22.67;;;8.38;;
21675;SDS011;10999;51.332;9.458;2024-03-07T09:57:45;20.90;;;7.78;;
21675;SDS011;10999;51.332;9.458;2024-03-07T10:00:13;20.27;;;8.50;;
21675;SDS011;10999;51.332;9.458;2024-03-07T10:02:51;21.33;;;9.05;;
21675;SDS011;10999;51.332;9.458;2024-03-07T10:05:22;25.40;;;8.60;;
21675;SDS011;10999;51.332;9.458;2024-03-07T10:07:50;24.83;;;8.00;;
21675;SDS011;10999;51.332;9.458;2024-03-07T10:10:19;20.77;;;8.82;;
21675;SDS011;10999;51.332;9.458;2024-03-07T10:12:46;24.20;;;8.88;;
21675;SDS011;10999;51.332;9.458;2024-03-07T10:15:13;19.90;;;8.13;;
21675;SDS011;10999;51.332;9.458;2024-03-07T10:17:44;16.52;;;7.18;;
21675;SDS011;10999;51.332;9.458;2024-03-07T10:20:13;20.10;;;7.97;;
21675;SDS011;10999;51.332;9.458;2024-03-07T10:22:41;20.90;;;8.57;;
21675;SDS011;10999;51.332;9.458;2024-03-07T10:25:07;20.75;;;8.20;;
21675;SDS011;10999;51.332;9.458;2024-03-07T10:27:38;18.77;;;7.72;;
21675;SDS011;10999;51.332;9.458;2024-03-07T10:30:05;22.10;;;8.20;;
21675;SDS011;10999;51.332;9.458;2024-03-07T10:32:35;21.58;;;9.30;;
21675;SDS011;10999;51.332;9.458;2024-03-07T10:35:03;19.58;;;7.85;;
21675;SDS011;10999;51.332;9.458;2024-03-07T10:37:34;24.15;;;8.77;;
21675;SDS011;10999;51.332;9.458;2024-03-07T10:40:02;22.45;;;8.05;;
21675;SDS011;10999;51.332;9.458;2024-03-07T10:42:44;21.63;;;7.68;;
21675;SDS011;10999;51.332;9.458;2024-03-07T10:45:18;23.17;;;8.30;;
21675;SDS011;10999;51.332;9.458;2024-03-07T10:47:54;19.33;;;7.97;;
21675;SDS011;10999;51.332;9.458;2024-03-07T10:52:56;17.70;;;7.93;;
21675;SDS011;10999;51.332;9.458;2024-03-07T10:55:34;19.48;;;7.97;;
21675;SDS011;10999;51.332;9.458;2024-03-07T10:58:09;22.45;;;8.07;;
21675;SDS011;10999;51.332;9.458;2024-03-07T11:00:50;24.92;;;7.57;;
21675;SDS011;10999;51.332;9.458;2024-03-07T11:03:22;22.27;;;7.72;;
21675;SDS011;10999;51.332;9.458;2024-03-07T11:05:50;18.90;;;8.13;;
21675;SDS011;10999;51.332;9.458;2024-03-07T11:08:17;20.77;;;7.50;;
21675;SDS011;10999;51.332;9.458;2024-03-07T11:10:45;20.90;;;7.50;;
21675;SDS011;10999;51.332;9.458;2024-03-07T11:13:13;23.17;;;8.35;;
21675;SDS011;10999;51.332;9.458;2024-03-07T11:15:43;16.38;;;6.68;;
21675;SDS011;10999;51.332;9.458;2024-03-07T11:18:13;21.20;;;7.47;;
21675;SDS011;10999;51.332;9.458;2024-03-07T11:20:40;20.90;;;6.80;;
21675;SDS011;10999;51.332;9.458;2024-03-07T11:23:26;20.92;;;7.88;;
21675;SDS011;10999;51.332;9.458;2024-03-07T11:28:36;24.73;;;8.10;;
21675;SDS011;10999;51.332;9.458;2024-03-07T11:31:14;18.17;;;6.50;;
21675;SDS011;10999;51.332;9.458;2024-03-07T11:34:12;21.55;;;7.57;;
21675;SDS011;10999;51.332;9.458;2024-03-07T11:36:45;20.38;;;7.70;;
21675;SDS011;10999;51.332;9.458;2024-03-07T11:44:48;16.33;;;7.25;;
21675;SDS011;10999;51.332;9.458;2024-03-07T11:47:15;18.42;;;6.95;;
21675;SDS011;10999;51.332;9.458;2024-03-07T11:49:44;19.73;;;7.07;;
21675;SDS011;10999;51.332;9.458;2024-03-07T11:52:15;17.35;;;7.45;;
21675;SDS011;10999;51.332;9.458;2024-03-07T11:54:42;15.80;;;6.97;;
21675;SDS011;10999;51.332;9.458;2024-03-07T11:57:18;17.70;;;7.15;;
21675;SDS011;10999;51.332;9.458;2024-03-07T11:59:47;16.02;;;6.72;;
21675;SDS011;10999;51.332;9.458;2024-03-07T12:02:19;18.30;;;6.90;;
21675;SDS011;10999;51.332;9.458;2024-03-07T12:04:49;20.20;;;7.53;;
21675;SDS011;10999;51.332;9.458;2024-03-07T12:07:16;20.65;;;7.32;;
21675;SDS011;10999;51.332;9.458;2024-03-07T12:09:49;19.75;;;6.78;;
21675;SDS011;10999;51.332;9.458;2024-03-07T12:12:22;16.10;;;6.03;;
21675;SDS011;10999;51.332;9.458;2024-03-07T12:14:50;16.13;;;6.18;;
21675;SDS011;10999;51.332;9.458;2024-03-07T12:17:19;21.85;;;7.75;;
21675;SDS011;10999;51.332;9.458;2024-03-07T12:19:49;20.27;;;7.63;;
21675;SDS011;10999;51.332;9.458;2024-03-07T12:22:20;19.23;;;7.13;;
21675;SDS011;10999;51.332;9.458;2024-03-07T12:25:01;19.98;;;7.15;;
21675;SDS011;10999;51.332;9.458;2024-03-07T12:27:29;16.05;;;6.20;;
21675;SDS011;10999;51.332;9.458;2024-03-07T12:29:56;18.33;;;7.70;;
21675;SDS011;10999;51.332;9.458;2024-03-07T12:32:23;19.92;;;6.15;;
21675;SDS011;10999;51.332;9.458;2024-03-07T12:34:52;18.45;;;6.88;;
21675;SDS011;10999;51.332;9.458;2024-03-07T12:37:19;16.35;;;6.35;;
21675;SDS011;10999;51.332;9.458;2024-03-07T12:39:53;16.50;;;6.03;;
21675;SDS011;10999;51.332;9.458;2024-03-07T12:42:27;15.70;;;6.20;;
21675;SDS011;10999;51.332;9.458;2024-03-07T12:44:57;16.02;;;6.10;;
21675;SDS011;10999;51.332;9.458;2024-03-07T12:47:26;18.80;;;6.20;;
21675;SDS011;10999;51.332;9.458;2024-03-07T12:49:53;20.08;;;6.50;;
21675;SDS011;10999;51.332;9.458;2024-03-07T12:52:19;15.00;;;5.40;;
21675;SDS011;10999;51.332;9.458;2024-03-07T12:54:46;15.02;;;6.60;;
21675;SDS011;10999;51.332;9.458;2024-03-07T12:57:14;16.42;;;6.70;;
21675;SDS011;10999;51.332;9.458;2024-03-07T12:59:41;17.60;;;6.55;;
21675;SDS011;10999;51.332;9.458;2024-03-07T13:02:08;13.65;;;6.03;;
21675;SDS011;10999;51.332;9.458;2024-03-07T13:04:38;17.98;;;6.95;;
21675;SDS011;10999;51.332;9.458;2024-03-07T13:07:09;14.68;;;6.22;;
21675;SDS011;10999;51.332;9.458;2024-03-07T13:09:36;14.88;;;5.45;;
21675;SDS011;10999;51.332;9.458;2024-03-07T13:12:07;16.38;;;6.40;;
21675;SDS011;10999;51.332;9.458;2024-03-07T13:14:36;18.02;;;6.70;;
21675;SDS011;10999;51.332;9.458;2024-03-07T13:17:03;16.42;;;5.72;;
21675;SDS011;10999;51.332;9.458;2024-03-07T13:19:33;15.55;;;6.53;;
21675;SDS011;10999;51.332;9.458;2024-03-07T13:22:00;18.75;;;5.78;;
21675;SDS011;10999;51.332;9.458;2024-03-07T13:24:28;15.45;;;6.15;;
21675;SDS011;10999;51.332;9.458;2024-03-07T13:26:54;14.88;;;5.43;;
21675;SDS011;10999;51.332;9.458;2024-03-07T13:29:21;14.35;;;6.03;;
21675;SDS011;10999;51.332;9.458;2024-03-07T13:31:51;16.75;;;6.82;;
21675;SDS011;10999;51.332;9.458;2024-03-07T13:34:21;16.55;;;6.05;;
21675;SDS011;10999;51.332;9.458;2024-03-07T13:36:47;16.85;;;6.63;;
21675;SDS011;10999;51.332;9.458;2024-03-07T13:39:15;15.48;;;5.47;;
21675;SDS011;10999;51.332;9.458;2024-03-07T13:41:42;13.38;;;5.53;;
21675;SDS011;10999;51.332;9.458;2024-03-07T13:44:10;13.30;;;4.90;;
21675;SDS011;10999;51.332;9.458;2024-03-07T13:46:40;12.70;;;5.90;;
21675;SDS011;10999;51.332;9.458;2024-03-07T13:49:07;14.00;;;5.25;;
21675;SDS011;10999;51.332;9.458;2024-03-07T13:51:39;15.43;;;6.28;;
21675;SDS011;10999;51.332;9.458;2024-03-07T13:54:16;15.95;;;5.82;;
21675;SDS011;10999;51.332;9.458;2024-03-07T14:03:26;14.95;;;6.05;;
21675;SDS011;10999;51.332;9.458;2024-03-07T14:06:22;18.50;;;6.10;;
21675;SDS011;10999;51.332;9.458;2024-03-07T14:12:23;17.77;;;6.35;;
21675;SDS011;10999;51.332;9.458;2024-03-07T14:21:15;10.38;;;4.72;;
21675;SDS011;10999;51.332;9.458;2024-03-07T14:24:30;12.38;;;5.28;;
21675;SDS011;10999;51.332;9.458;2024-03-07T14:27:09;13.05;;;5.15;;
21675;SDS011;10999;51.332;9.458;2024-03-07T14:32:50;12.50;;;5.13;;
21675;SDS011;10999;51.332;9.458;2024-03-07T14:35:22;17.48;;;6.60;;
21675;SDS011;10999;51.332;9.458;2024-03-07T14:40:51;17.00;;;5.70;;
21675;SDS011;10999;51.332;9.458;2024-03-07T14:43:18;12.32;;;5.07;;
21675;SDS011;10999;51.332;9.458;2024-03-07T14:45:46;12.93;;;5.07;;
21675;SDS011;10999;51.332;9.458;2024-03-07T14:48:13;13.20;;;5.40;;
21675;SDS011;10999;51.332;9.458;2024-03-07T14:50:44;12.50;;;5.47;;
21675;SDS011;10999;51.332;9.458;2024-03-07T14:53:12;13.75;;;5.45;;
21675;SDS011;10999;51.332;9.458;2024-03-07T14:55:43;14.63;;;5.70;;
21675;SDS011;10999;51.332;9.458;2024-03-07T14:58:10;12.93;;;6.13;;
21675;SDS011;10999;51.332;9.458;2024-03-07T15:00:37;13.82;;;5.60;;
21675;SDS011;10999;51.332;9.458;2024-03-07T15:03:22;12.43;;;6.00;;
21675;SDS011;10999;51.332;9.458;2024-03-07T15:05:50;12.00;;;5.15;;
21675;SDS011;10999;51.332;9.458;2024-03-07T15:08:18;14.50;;;6.05;;
21675;SDS011;10999;51.332;9.458;2024-03-07T15:10:55;14.40;;;5.65;;
21675;SDS011;10999;51.332;9.458;2024-03-07T15:13:25;13.10;;;5.00;;
21675;SDS011;10999;51.332;9.458;2024-03-07T15:15:52;12.20;;;5.18;;
21675;SDS011;10999;51.332;9.458;2024-03-07T15:18:21;14.93;;;6.47;;
21675;SDS011;10999;51.332;9.458;2024-03-07T15:20:48;12.13;;;5.85;;